Time;durP1;ratioP1;P1;durP2;ratioP2;P2;SDS_P1;SDS_P2;PMS_P1;PMS_P2;Temp;Humidity;BMP_temperature;BMP_pressure;BME280_temperature;BME280_humidity;BME280_pressure;Samples;Min_cycle;Max_cycle;Signal;HPM_P1;HPM_P2
2022/06/15 00:01:23;;;;;;;3.17;2.50;;;;;;;16.98;72.49;99416.31;5110924;28;20239;-89
2022/06/15 00:03:50;;;;;;;9.67;3.40;;;;;;;16.96;72.53;99414.88;5111874;28;20277;-84
2022/06/15 00:06:20;;;;;;;10.17;3.53;;;;;;;16.95;73.09;99415.81;5111832;28;20230;-90
2022/06/15 00:08:48;;;;;;;12.40;3.50;;;;;;;16.94;73.19;99417.56;5111633;28;20206;-89
2022/06/15 00:11:17;;;;;;;8.30;3.10;;;;;;;16.89;73.32;99422.34;5111614;28;20774;-84
2022/06/15 00:13:44;;;;;;;5.07;2.80;;;;;;;16.88;73.31;99419.94;5111846;28;20342;-84
2022/06/15 00:16:10;;;;;;;4.37;2.80;;;;;;;16.78;73.16;99417.38;5111676;28;20239;-90
2022/06/15 00:18:37;;;;;;;3.63;2.63;;;;;;;16.74;72.81;99416.00;5111419;28;20211;-86
2022/06/15 00:21:05;;;;;;;4.30;2.70;;;;;;;16.72;72.50;99416.13;5111490;28;20242;-84
2022/06/15 00:23:32;;;;;;;3.50;2.70;;;;;;;16.70;72.14;99418.06;5111669;28;20682;-84
2022/06/15 00:25:59;;;;;;;3.00;2.70;;;;;;;16.72;72.45;99425.66;5111526;28;20674;-88
2022/06/15 00:28:26;;;;;;;3.43;2.77;;;;;;;16.69;72.02;99415.63;5111476;28;20612;-84
2022/06/15 00:30:53;;;;;;;8.00;2.80;;;;;;;16.69;72.51;99413.84;5111623;28;20268;-84
2022/06/15 00:33:21;;;;;;;3.70;2.80;;;;;;;16.68;73.35;99414.81;5111370;28;20715;-85
2022/06/15 00:35:55;;;;;;;4.03;2.70;;;;;;;16.67;73.68;99412.38;5111345;28;20284;-89
2022/06/15 00:38:22;;;;;;;5.13;2.70;;;;;;;16.70;74.15;99414.69;5111752;28;20229;-85
2022/06/15 00:40:48;;;;;;;4.97;2.67;;;;;;;16.67;73.81;99423.53;5111368;28;20232;-86
2022/06/15 00:43:27;;;;;;;5.50;2.70;;;;;;;16.63;74.06;99422.16;5111194;28;20205;-84
2022/06/15 00:45:54;;;;;;;4.97;2.90;;;;;;;16.58;73.66;99418.38;5111086;28;20887;-89
2022/06/15 00:48:20;;;;;;;4.83;3.00;;;;;;;16.55;74.83;99418.66;5110999;28;20645;-85
2022/06/15 00:50:46;;;;;;;5.53;2.97;;;;;;;16.49;75.15;99420.88;5111193;28;20239;-85
2022/06/15 00:53:12;;;;;;;4.73;2.83;;;;;;;16.45;75.30;99411.75;5111145;28;20204;-85
2022/06/15 00:55:41;;;;;;;5.47;2.90;;;;;;;16.42;75.19;99406.88;5110917;28;20730;-85
2022/06/15 00:58:10;;;;;;;5.50;3.03;;;;;;;16.41;75.42;99400.09;5110809;28;20209;-85
2022/06/15 01:00:36;;;;;;;3.63;2.90;;;;;;;16.42;75.32;99408.66;5110996;28;20241;-85
2022/06/15 01:03:03;;;;;;;5.43;3.10;;;;;;;16.36;76.05;99406.63;5111196;28;20216;-85
2022/06/15 01:05:42;;;;;;;6.50;2.87;;;;;;;16.34;76.13;99411.09;5111206;28;20232;-85
2022/06/15 01:08:21;;;;;;;4.60;2.73;;;;;;;16.25;75.61;99412.75;5110894;28;20682;-89
2022/06/15 01:11:08;;;;;;;4.10;2.67;;;;;;;16.20;75.47;99409.78;5111135;28;20234;-85
2022/06/15 01:14:00;;;;;;;5.10;3.10;;;;;;;16.16;75.99;99411.00;5110440;28;20634;-84
2022/06/15 01:16:34;;;;;;;5.53;2.93;;;;;;;16.13;76.01;99413.88;5110945;28;20702;-89
2022/06/15 01:19:13;;;;;;;6.07;3.20;;;;;;;16.13;76.03;99414.69;5110819;28;20216;-85
2022/06/15 01:21:48;;;;;;;4.03;2.77;;;;;;;16.10;76.53;99420.13;5110362;28;20236;-84
2022/06/15 01:24:39;;;;;;;3.73;2.60;;;;;;;16.08;76.53;99419.44;5110987;28;20240;-89
2022/06/15 01:27:32;;;;;;;4.33;2.73;;;;;;;16.02;76.70;99428.53;5110280;28;20233;-89
2022/06/15 01:30:25;;;;;;;4.07;2.97;;;;;;;16.02;78.09;99422.56;5110396;28;20655;-89
2022/06/15 01:33:05;;;;;;;3.83;2.90;;;;;;;15.99;77.87;99423.66;5110492;28;20676;-89
2022/06/15 01:35:40;;;;;;;6.10;2.77;;;;;;;15.95;77.45;99430.03;5110415;28;20323;-85
2022/06/15 01:38:21;;;;;;;3.53;2.90;;;;;;;15.89;77.23;99432.38;5110484;28;20599;-90
2022/06/15 01:40:52;;;;;;;5.33;3.30;;;;;;;15.84;76.59;99441.31;5110512;28;20242;-84
2022/06/15 01:43:21;;;;;;;5.27;2.77;;;;;;;15.82;77.50;99438.06;5110827;28;20209;-87
2022/06/15 01:45:50;;;;;;;6.93;3.27;;;;;;;15.79;77.54;99433.16;5110110;28;20225;-89
2022/06/15 01:48:18;;;;;;;5.13;3.10;;;;;;;15.76;78.39;99432.63;5109935;28;20213;-89
2022/06/15 01:50:48;;;;;;;5.63;3.20;;;;;;;15.71;78.11;99434.81;5110246;28;20752;-84
2022/06/15 01:53:19;;;;;;;6.33;2.97;;;;;;;15.68;79.55;99432.47;5109950;28;20209;-89
2022/06/15 01:55:49;;;;;;;4.83;3.03;;;;;;;15.68;79.32;99435.03;5110211;28;20236;-84
2022/06/15 01:58:18;;;;;;;4.70;2.80;;;;;;;15.63;78.92;99438.03;5110079;28;20209;-90
2022/06/15 02:00:52;;;;;;;3.80;3.10;;;;;;;15.57;79.01;99441.94;5110072;28;20262;-90
2022/06/15 02:03:26;;;;;;;5.70;3.23;;;;;;;15.54;79.10;99437.06;5110483;28;20228;-86
2022/06/15 02:05:59;;;;;;;7.30;2.90;;;;;;;15.47;78.45;99448.84;5109873;28;20246;-89
2022/06/15 02:08:33;;;;;;;5.43;3.13;;;;;;;15.43;78.93;99436.38;5110290;28;20218;-84
2022/06/15 02:11:05;;;;;;;6.77;3.20;;;;;;;15.33;78.82;99444.06;5109815;28;20242;-89
2022/06/15 02:13:42;;;;;;;4.57;2.97;;;;;;;15.27;78.47;99450.56;5109926;28;20339;-89
2022/06/15 02:16:14;;;;;;;4.67;3.17;;;;;;;15.30;78.19;99449.47;5109745;28;20228;-83
2022/06/15 02:18:46;;;;;;;5.40;3.07;;;;;;;15.28;78.34;99447.03;5109782;28;20228;-89
2022/06/15 02:21:18;;;;;;;5.90;3.33;;;;;;;15.28;77.79;99448.81;5110229;28;20250;-83
2022/06/15 02:23:47;;;;;;;5.70;3.27;;;;;;;15.26;78.01;99445.53;5109571;28;20664;-89
2022/06/15 02:26:15;;;;;;;6.17;3.70;;;;;;;15.23;77.89;99445.81;5109591;28;20230;-89
2022/06/15 02:28:45;;;;;;;5.03;3.20;;;;;;;15.20;79.39;99446.06;5109719;28;20213;-90
2022/06/15 02:31:12;;;;;;;4.53;3.40;;;;;;;15.22;79.26;99445.00;5109888;28;20734;-83
2022/06/15 02:33:45;;;;;;;5.43;3.27;;;;;;;15.19;79.34;99447.03;5109146;28;20303;-90
2022/06/15 02:36:12;;;;;;;8.53;3.50;;;;;;;15.19;79.72;99445.25;5109483;28;20617;-83
2022/06/15 02:38:38;;;;;;;5.13;3.43;;;;;;;15.19;80.42;99449.59;5109546;28;20228;-89
2022/06/15 02:41:04;;;;;;;4.77;3.17;;;;;;;15.19;79.56;99449.59;5109185;28;20772;-88
2022/06/15 02:43:33;;;;;;;6.23;3.37;;;;;;;15.13;79.52;99454.31;5109541;28;20229;-87
2022/06/15 02:46:01;;;;;;;5.50;3.10;;;;;;;15.11;79.39;99458.78;5109288;28;20555;-83
2022/06/15 02:48:28;;;;;;;6.43;3.00;;;;;;;15.14;79.30;99453.38;5109424;28;20212;-88
2022/06/15 02:51:01;;;;;;;6.20;3.30;;;;;;;15.12;79.72;99465.56;5108957;28;20233;-89
2022/06/15 02:53:31;;;;;;;5.53;3.40;;;;;;;15.07;81.08;99467.72;5109253;28;20212;-83
2022/06/15 02:55:59;;;;;;;4.43;3.50;;;;;;;15.05;81.60;99469.59;5109097;28;20230;-88
2022/06/15 02:58:28;;;;;;;6.87;3.67;;;;;;;15.04;81.85;99467.16;5109121;28;20734;-88
2022/06/15 03:00:54;;;;;;;4.80;3.67;;;;;;;15.00;81.90;99471.75;5109124;28;20413;-83
2022/06/15 03:03:22;;;;;;;5.50;3.27;;;;;;;14.98;82.21;99468.50;5109065;28;20224;-83
2022/06/15 03:05:49;;;;;;;6.53;3.47;;;;;;;14.97;82.37;99472.00;5109081;28;20237;-88
2022/06/15 03:08:16;;;;;;;5.13;3.30;;;;;;;14.96;82.70;99475.53;5108872;28;20221;-82
2022/06/15 03:10:43;;;;;;;8.20;3.50;;;;;;;14.95;83.17;99468.75;5108799;28;20228;-88
2022/06/15 03:13:09;;;;;;;10.13;3.53;;;;;;;14.97;83.47;99471.19;5109248;28;20570;-83
2022/06/15 03:15:36;;;;;;;6.33;3.70;;;;;;;14.95;82.97;99468.75;5108587;28;20248;-88
2022/06/15 03:18:02;;;;;;;6.90;3.63;;;;;;;14.96;82.48;99478.13;5109126;28;20212;-87
2022/06/15 03:20:28;;;;;;;7.00;3.40;;;;;;;14.93;82.42;99470.66;5108843;28;20233;-83
2022/06/15 03:22:55;;;;;;;5.23;3.30;;;;;;;14.96;82.44;99482.47;5109057;28;20216;-86
2022/06/15 03:25:21;;;;;;;4.93;3.10;;;;;;;15.01;81.83;99482.88;5108780;28;20237;-82
2022/06/15 03:27:48;;;;;;;5.57;3.27;;;;;;;15.02;81.37;99480.19;5108699;28;20217;-82
2022/06/15 03:30:15;;;;;;;5.67;3.23;;;;;;;15.05;81.03;99474.75;5108740;28;20251;-87
2022/06/15 03:32:41;;;;;;;4.10;3.23;;;;;;;15.08;80.52;99482.22;5108783;28;20213;-84
2022/06/15 03:35:10;;;;;;;5.30;3.27;;;;;;;15.12;80.46;99475.84;5109100;28;20242;-88
2022/06/15 03:37:37;;;;;;;5.90;3.23;;;;;;;15.19;80.78;99481.31;5112071;28;20286;-83
2022/06/15 03:40:05;;;;;;;4.83;3.00;;;;;;;15.23;81.32;99481.88;5112174;28;20230;-83
2022/06/15 03:42:31;;;;;;;7.50;3.43;;;;;;;15.31;81.82;99484.63;5112181;28;20213;-84
2022/06/15 03:44:58;;;;;;;6.87;3.50;;;;;;;15.36;82.62;99492.78;5111960;28;20213;-89
2022/06/15 03:47:24;;;;;;;6.33;3.40;;;;;;;15.37;82.50;99494.41;5112182;28;20334;-89
2022/06/15 03:49:52;;;;;;;5.73;3.40;;;;;;;15.42;83.91;99487.09;5111726;28;20209;-83
2022/06/15 03:52:21;;;;;;;4.80;3.53;;;;;;;15.50;84.56;99494.94;5112118;28;20217;-83
2022/06/15 03:54:48;;;;;;;7.33;3.90;;;;;;;15.54;85.78;99495.53;5111800;28;20229;-88
2022/06/15 03:57:17;;;;;;;5.30;3.67;;;;;;;15.60;86.48;99500.16;5112143;28;20658;-82
2022/06/15 03:59:44;;;;;;;5.63;3.50;;;;;;;15.67;87.04;99485.75;5111845;28;20214;-83
2022/06/15 04:02:10;;;;;;;6.07;3.80;;;;;;;15.75;86.75;99492.88;5111814;28;20272;-83
2022/06/15 04:04:37;;;;;;;5.63;3.63;;;;;;;15.87;87.14;99496.13;5111850;28;20286;-89
2022/06/15 04:07:05;;;;;;;4.13;3.73;;;;;;;15.90;87.57;99496.69;5111685;28;20229;-89
2022/06/15 04:09:31;;;;;;;5.47;4.20;;;;;;;16.05;87.68;99500.47;5111530;28;20258;-83
2022/06/15 04:12:02;;;;;;;6.07;3.80;;;;;;;16.09;87.79;99506.19;5111543;28;20237;-86
2022/06/15 04:14:29;;;;;;;8.27;3.90;;;;;;;16.22;88.83;99500.75;5111663;28;20253;-88
2022/06/15 04:16:56;;;;;;;4.80;4.10;;;;;;;16.32;87.95;99505.91;5111935;28;20229;-89
2022/06/15 04:19:24;;;;;;;6.47;4.23;;;;;;;16.42;88.58;99506.72;5111302;28;20225;-89
2022/06/15 04:21:51;;;;;;;7.97;4.80;;;;;;;16.47;87.38;99502.78;5111693;28;20240;-84
2022/06/15 04:24:18;;;;;;;6.63;4.40;;;;;;;16.59;88.54;99510.38;5111543;28;20213;-84
2022/06/15 04:26:45;;;;;;;9.30;4.23;;;;;;;16.80;89.05;99511.00;5111370;28;20233;-84
2022/06/15 04:29:12;;;;;;;8.37;4.67;;;;;;;17.00;88.30;99511.78;5111389;28;20237;-89
2022/06/15 04:31:39;;;;;;;7.43;4.37;;;;;;;17.13;87.65;99508.84;5111119;28;20233;-83
2022/06/15 04:34:05;;;;;;;6.70;4.70;;;;;;;17.36;88.94;99517.06;5111050;28;20232;-83
2022/06/15 04:36:33;;;;;;;6.37;5.20;;;;;;;17.53;90.22;99512.88;5111281;28;20230;-88
2022/06/15 04:38:59;;;;;;;9.17;5.90;;;;;;;17.68;91.24;99515.78;5111377;28;20213;-88
2022/06/15 04:41:26;;;;;;;10.37;6.40;;;;;;;17.86;91.94;99520.06;5111202;28;20227;-89
2022/06/15 04:43:52;;;;;;;7.37;6.10;;;;;;;18.03;92.63;99520.19;5111339;28;20218;-88
2022/06/15 04:46:18;;;;;;;15.03;6.17;;;;;;;18.24;92.02;99523.31;5110730;28;20238;-86
2022/06/15 04:48:45;;;;;;;9.30;5.90;;;;;;;18.37;91.17;99522.09;5110865;28;20214;-88
2022/06/15 04:51:12;;;;;;;10.40;5.70;;;;;;;18.52;87.76;99520.59;5111015;28;20326;-89
2022/06/15 04:53:39;;;;;;;8.23;5.77;;;;;;;18.66;88.17;99525.22;5110803;28;20648;-86
2022/06/15 04:56:06;;;;;;;10.23;5.63;;;;;;;18.77;86.68;99524.19;5110704;28;20242;-82
2022/06/15 04:58:32;;;;;;;10.80;6.13;;;;;;;18.94;88.06;99519.94;5111030;28;20612;-84
2022/06/15 05:00:58;;;;;;;7.77;5.77;;;;;;;19.03;87.98;99519.00;5110779;28;20240;-84
2022/06/15 05:03:24;;;;;;;11.60;5.93;;;;;;;19.20;86.85;99519.91;5111134;28;20222;-84
2022/06/15 05:05:55;;;;;;;7.80;5.40;;;;;;;19.34;86.80;99521.06;5110686;28;20241;-84
2022/06/15 05:08:21;;;;;;;8.07;5.77;;;;;;;19.49;85.72;99529.88;5110695;28;20232;-85
2022/06/15 05:10:48;;;;;;;9.40;6.27;;;;;;;19.58;85.09;99528.94;5110855;28;20237;-88
2022/06/15 05:13:14;;;;;;;10.13;5.77;;;;;;;19.81;85.38;99529.19;5110777;28;20224;-89
2022/06/15 05:15:41;;;;;;;11.07;5.47;;;;;;;19.97;84.34;99533.59;5110461;28;20231;-87
2022/06/15 05:18:08;;;;;;;11.90;5.50;;;;;;;19.97;82.68;99537.97;5110638;28;20215;-89
2022/06/15 05:20:36;;;;;;;7.60;5.53;;;;;;;20.19;83.29;99531.31;5110477;28;20304;-87
2022/06/15 05:23:03;;;;;;;9.33;5.40;;;;;;;20.37;81.22;99534.59;5110393;28;20233;-85
2022/06/15 05:25:29;;;;;;;7.43;4.70;;;;;;;20.47;79.85;99540.41;5110548;28;20237;-89
2022/06/15 05:27:56;;;;;;;8.27;5.50;;;;;;;20.50;79.87;99532.28;5110467;28;20273;-83
2022/06/15 05:30:22;;;;;;;7.73;5.00;;;;;;;20.66;78.30;99528.09;5110676;28;20236;-87
2022/06/15 05:32:49;;;;;;;7.37;4.93;;;;;;;20.81;75.58;99534.22;5110606;28;20211;-89
2022/06/15 05:35:15;;;;;;;6.53;4.90;;;;;;;20.86;77.86;99534.56;5110141;28;20242;-89
2022/06/15 05:37:42;;;;;;;6.27;5.33;;;;;;;21.12;78.99;99543.88;5110341;28;20325;-88
2022/06/15 05:40:09;;;;;;;7.27;4.90;;;;;;;21.29;76.26;99544.66;5110197;28;20771;-87
2022/06/15 05:42:35;;;;;;;6.87;4.97;;;;;;;21.38;75.01;99541.88;5110261;28;20230;-84
2022/06/15 05:45:02;;;;;;;7.40;4.90;;;;;;;21.52;74.45;99544.75;5110118;28;20222;-87
2022/06/15 05:47:29;;;;;;;6.60;4.70;;;;;;;21.48;74.12;99544.28;5109960;28;20211;-88
2022/06/15 05:49:55;;;;;;;6.40;4.90;;;;;;;21.48;75.66;99545.06;5109681;28;20595;-87
2022/06/15 05:52:21;;;;;;;7.03;4.87;;;;;;;21.68;74.41;99544.66;5110226;28;20216;-84
2022/06/15 05:54:47;;;;;;;8.13;5.33;;;;;;;21.82;74.25;99549.13;5109807;28;20227;-89
2022/06/15 05:57:18;;;;;;;10.10;4.80;;;;;;;22.01;77.67;99555.66;5109638;28;20227;-86
2022/06/15 05:59:44;;;;;;;7.67;5.10;;;;;;;22.13;74.47;99550.88;5109427;28;20236;-89
2022/06/15 06:02:12;;;;;;;8.27;5.00;;;;;;;22.23;75.25;99559.31;5109875;28;20255;-88
2022/06/15 06:04:38;;;;;;;10.13;4.90;;;;;;;22.25;73.89;99562.56;5109836;28;20666;-88
2022/06/15 06:07:05;;;;;;;7.50;4.70;;;;;;;22.31;69.51;99566.22;5109779;28;20638;-86
2022/06/15 06:09:31;;;;;;;8.10;4.60;;;;;;;22.44;71.65;99568.25;5109618;28;20258;-89
2022/06/15 06:11:58;;;;;;;5.30;4.43;;;;;;;22.63;70.43;99564.34;5109668;28;20231;-87
2022/06/15 06:14:24;;;;;;;7.07;4.60;;;;;;;22.79;70.78;99570.22;5109508;28;20228;-88
2022/06/15 06:16:50;;;;;;;9.18;4.97;;;;;;;22.90;67.63;99576.78;5109685;28;20337;-85
2022/06/15 06:19:17;;;;;;;6.25;4.38;;;;;;;22.75;67.94;99579.38;5109645;28;20284;-89
2022/06/15 06:21:44;;;;;;;7.22;4.57;;;;;;;22.64;66.57;99579.81;5109498;28;20236;-86
2022/06/15 06:24:10;;;;;;;4.82;4.00;;;;;;;22.75;66.95;99574.16;5109422;28;20220;-89
2022/06/15 06:26:37;;;;;;;6.15;4.78;;;;;;;22.99;69.45;99575.75;5109353;28;20230;-89
2022/06/15 06:29:04;;;;;;;8.05;4.05;;;;;;;23.00;66.71;99577.34;5109520;28;20621;-90
2022/06/15 06:31:31;;;;;;;7.40;4.35;;;;;;;23.03;65.27;99584.81;5109324;28;20290;-89
2022/06/15 06:33:57;;;;;;;8.48;3.92;;;;;;;23.08;66.01;99579.09;5109144;28;20217;-86
2022/06/15 06:36:29;;;;;;;6.70;4.15;;;;;;;23.35;62.38;99574.22;5109007;28;20237;-85
2022/06/15 06:38:56;;;;;;;6.50;4.07;;;;;;;23.60;63.31;99583.34;5109728;28;20679;-88
2022/06/15 06:41:24;;;;;;;4.60;3.60;;;;;;;23.76;63.53;99574.50;5109267;28;20225;-86
2022/06/15 06:43:51;;;;;;;6.97;3.67;;;;;;;23.85;58.66;99588.28;5109324;28;20603;-87
2022/06/15 06:46:18;;;;;;;7.07;4.00;;;;;;;23.98;58.39;99585.81;5109584;28;20739;-86
2022/06/15 06:48:44;;;;;;;5.10;4.20;;;;;;;24.06;64.19;99590.91;5108864;28;20352;-88
2022/06/15 06:51:11;;;;;;;7.30;4.00;;;;;;;24.02;59.38;99592.28;5108773;28;20229;-87
2022/06/15 06:53:38;;;;;;;4.30;3.55;;;;;;;24.02;56.59;99591.47;5108970;28;20601;-86
2022/06/15 06:56:07;;;;;;;4.65;3.80;;;;;;;23.96;56.02;99590.41;5109023;28;20229;-87
2022/06/15 06:58:34;;;;;;;5.78;3.90;;;;;;;24.22;56.70;99591.66;5109073;28;20224;-86
2022/06/15 07:01:00;;;;;;;5.28;3.90;;;;;;;24.43;57.65;99594.28;5109177;28;20236;-87
2022/06/15 07:03:27;;;;;;;4.40;3.83;;;;;;;24.41;58.48;99596.28;5109014;28;20270;-88
2022/06/15 07:05:59;;;;;;;5.10;3.83;;;;;;;24.44;57.47;99595.94;5108862;28;20237;-85
2022/06/15 07:08:25;;;;;;;6.03;3.92;;;;;;;24.64;54.84;99590.84;5108878;28;20209;-87
2022/06/15 07:10:52;;;;;;;6.53;4.40;;;;;;;24.68;57.22;99592.09;5112291;28;20233;-86
2022/06/15 07:13:18;;;;;;;5.68;3.40;;;;;;;24.69;55.31;99592.88;5112540;28;20212;-87
2022/06/15 07:15:44;;;;;;;4.93;3.80;;;;;;;24.81;55.32;99592.19;5112499;28;20382;-87
2022/06/15 07:18:10;;;;;;;5.47;3.75;;;;;;;24.81;53.84;99599.22;5112521;28;20217;-86
2022/06/15 07:20:37;;;;;;;5.07;3.22;;;;;;;24.57;51.33;99590.78;5112251;28;20229;-86
2022/06/15 07:23:03;;;;;;;4.22;3.55;;;;;;;24.82;53.38;99593.00;5112467;28;20575;-86
2022/06/15 07:25:30;;;;;;;4.22;3.67;;;;;;;25.15;56.07;99597.66;5112112;28;20233;-87
2022/06/15 07:27:57;;;;;;;3.95;3.20;;;;;;;25.08;49.02;99598.38;5112527;28;20209;-86
2022/06/15 07:30:26;;;;;;;5.88;3.08;;;;;;;25.41;53.79;99587.31;5112411;28;20614;-85
2022/06/15 07:32:52;;;;;;;4.00;3.13;;;;;;;25.75;50.99;99598.72;5112278;28;20217;-86
2022/06/15 07:35:23;;;;;;;6.68;3.00;;;;;;;25.48;45.09;99595.19;5112288;28;20276;-86
2022/06/15 07:37:50;;;;;;;7.78;3.20;;;;;;;25.48;46.91;99593.41;5112022;28;20217;-87
2022/06/15 07:40:19;;;;;;;6.03;3.45;;;;;;;25.46;49.54;99590.16;5112036;28;20228;-87
2022/06/15 07:42:46;;;;;;;7.55;3.60;;;;;;;25.47;51.92;99597.00;5112277;28;20216;-86
2022/06/15 07:45:14;;;;;;;6.05;3.25;;;;;;;25.82;50.55;99601.34;5112055;28;20229;-85
2022/06/15 07:50:25;;;;;;;4.18;3.05;;;;;;;25.83;48.40;99600.38;5111910;28;20247;-87
2022/06/15 07:52:53;;;;;;;4.13;3.08;;;;;;;26.05;49.88;99599.22;5111910;28;20224;-86
2022/06/15 07:55:22;;;;;;;5.75;3.78;;;;;;;26.33;52.43;99606.94;5111806;28;20236;-86
2022/06/15 07:57:48;;;;;;;6.80;3.63;;;;;;;26.60;48.64;99606.97;5112046;28;20223;-86
2022/06/15 08:00:17;;;;;;;6.53;3.65;;;;;;;26.85;49.32;99600.09;5111791;28;20229;-87
2022/06/15 08:02:43;;;;;;;5.22;3.25;;;;;;;27.01;47.70;99603.28;5111919;28;20214;-85
2022/06/15 08:05:10;;;;;;;5.97;3.20;;;;;;;27.31;50.15;99604.47;5112025;28;20229;-86
2022/06/15 08:07:37;;;;;;;4.60;3.25;;;;;;;27.01;50.91;99606.72;5111401;28;20220;-85
2022/06/15 08:10:05;;;;;;;4.57;3.30;;;;;;;27.30;52.59;99608.06;5111486;28;20282;-86
2022/06/15 08:12:31;;;;;;;6.30;3.53;;;;;;;27.49;50.83;99605.59;5111775;28;20214;-85
2022/06/15 08:15:01;;;;;;;4.43;3.53;;;;;;;27.53;44.77;99606.78;5111289;28;20730;-86
2022/06/15 08:17:33;;;;;;;5.03;3.50;;;;;;;27.57;46.33;99607.97;5111739;28;20210;-88
2022/06/15 08:20:05;;;;;;;6.05;3.72;;;;;;;26.96;46.61;99611.75;5111971;28;20209;-87
2022/06/15 08:22:34;;;;;;;4.60;3.90;;;;;;;26.80;53.88;99605.13;5110872;28;20660;-88
2022/06/15 08:25:00;;;;;;;8.70;3.80;;;;;;;27.06;51.19;99611.34;5111561;28;20257;-85
2022/06/15 08:27:27;;;;;;;6.65;4.03;;;;;;;26.85;50.54;99621.09;5111654;28;20224;-85
2022/06/15 08:29:53;;;;;;;4.70;4.00;;;;;;;26.85;51.69;99621.09;5111355;28;20217;-85
2022/06/15 08:32:19;;;;;;;5.78;3.83;;;;;;;26.80;51.06;99623.50;5111462;28;20220;-88
2022/06/15 08:34:46;;;;;;;5.32;3.97;;;;;;;26.18;48.51;99625.47;5111102;28;20229;-88
2022/06/15 08:37:16;;;;;;;5.85;3.97;;;;;;;26.19;55.50;99627.06;5111335;28;20659;-85
2022/06/15 08:39:42;;;;;;;5.60;4.13;;;;;;;26.56;50.23;99621.50;5111095;28;20209;-87
2022/06/15 08:42:17;;;;;;;7.07;4.15;;;;;;;26.79;51.46;99626.31;5111016;28;20205;-87
2022/06/15 08:44:55;;;;;;;6.78;3.88;;;;;;;26.80;51.55;99630.56;5111148;28;20219;-86
2022/06/15 08:47:36;;;;;;;6.82;3.80;;;;;;;26.92;48.37;99631.56;5111443;28;20622;-88
2022/06/15 08:50:12;;;;;;;4.53;3.80;;;;;;;27.23;53.06;99636.19;5110994;28;20572;-86
2022/06/15 08:52:42;;;;;;;5.28;3.50;;;;;;;27.33;50.25;99634.94;5111025;28;20212;-87
2022/06/15 08:55:18;;;;;;;4.68;3.63;;;;;;;26.94;48.19;99634.00;5110701;28;20229;-86
2022/06/15 08:57:50;;;;;;;7.82;3.90;;;;;;;26.78;51.12;99635.19;5111020;28;20888;-86
2022/06/15 09:00:21;;;;;;;6.88;3.85;;;;;;;26.85;48.35;99636.03;5111000;28;20251;-88
2022/06/15 09:18:38;;;;;;;5.85;3.78;;;;;;;27.57;49.49;99634.25;5126646;27;20320;-87
2022/06/15 09:21:10;;;;;;;4.75;3.22;;;;;;;27.61;46.57;99632.81;5126329;28;20591;-86
2022/06/15 09:23:42;;;;;;;6.80;3.42;;;;;;;27.56;45.84;99643.16;5126355;27;20478;-86
2022/06/15 09:26:13;;;;;;;4.03;3.20;;;;;;;27.47;46.51;99633.88;5126231;28;20434;-86
2022/06/15 09:28:44;;;;;;;7.53;3.42;;;;;;;27.49;49.98;99637.13;5126461;28;20224;-86
2022/06/15 09:31:18;;;;;;;6.72;3.35;;;;;;;27.64;48.38;99640.28;5126055;28;20217;-85
2022/06/15 09:33:50;;;;;;;5.93;3.33;;;;;;;28.02;47.35;99642.16;5125914;28;20204;-87
2022/06/15 09:36:20;;;;;;;5.05;3.28;;;;;;;27.98;44.27;99641.78;5125447;27;20219;-86
2022/06/15 09:38:46;;;;;;;6.32;3.10;;;;;;;27.86;47.57;99637.38;5125736;28;20269;-86
2022/06/15 09:41:20;;;;;;;4.07;3.08;;;;;;;28.25;47.11;99638.19;5125680;28;20212;-87
2022/06/15 09:43:56;;;;;;;4.15;2.90;;;;;;;28.19;45.04;99643.28;5126250;28;20220;-86
2022/06/15 09:46:34;;;;;;;4.10;3.17;;;;;;;28.16;43.52;99642.91;5125766;27;20236;-86
2022/06/15 09:49:21;;;;;;;4.03;3.13;;;;;;;28.25;41.54;99651.34;5125819;28;20200;-87
2022/06/15 09:51:58;;;;;;;5.90;3.13;;;;;;;27.77;42.72;99642.84;5125798;27;20228;-87
2022/06/15 09:54:34;;;;;;;4.50;2.90;;;;;;;27.73;41.50;99646.91;5125878;28;20216;-86
2022/06/15 09:57:00;;;;;;;3.47;3.00;;;;;;;27.46;42.60;99637.50;5125576;27;20285;-85
2022/06/15 09:59:32;;;;;;;5.60;3.47;;;;;;;27.66;42.79;99638.25;5126043;28;20204;-86
2022/06/15 10:01:59;;;;;;;5.55;3.25;;;;;;;27.64;48.11;99640.28;5125789;27;20286;-86
2022/06/15 10:04:29;;;;;;;4.53;3.53;;;;;;;27.69;48.17;99644.91;5125565;28;20205;-86
2022/06/15 10:07:00;;;;;;;4.38;3.47;;;;;;;28.05;47.87;99644.38;5125587;27;20526;-85
2022/06/15 10:09:30;;;;;;;5.57;3.53;;;;;;;27.89;45.96;99643.00;5125368;28;20223;-87
2022/06/15 10:12:55;;;;;;;4.95;3.53;;;;;;;28.21;49.40;99641.22;5125497;27;20627;-86
2022/06/15 10:14:49;;;;;;;5.13;3.25;;;;;;;27.60;43.94;99633.81;5125360;28;20209;-87
2022/06/15 10:17:23;;;;;;;5.97;3.10;;;;;;;27.49;46.98;99637.94;5124528;27;20236;-87
2022/06/15 10:19:53;;;;;;;6.38;3.28;;;;;;;27.20;45.19;99633.13;5111478;28;20217;-85
2022/06/15 10:22:25;;;;;;;5.50;3.22;;;;;;;26.98;45.95;99641.25;5111586;28;20264;-87
2022/06/15 10:24:53;;;;;;;5.40;3.47;;;;;;;27.20;49.87;99628.72;5111754;28;20217;-86
2022/06/15 10:27:28;;;;;;;5.03;3.58;;;;;;;27.30;46.04;99629.09;5111421;28;20327;-86
2022/06/15 10:30:00;;;;;;;4.45;3.10;;;;;;;27.22;47.89;99628.50;5111687;28;20221;-86
2022/06/15 10:32:29;;;;;;;3.63;3.13;;;;;;;27.03;46.27;99628.31;5111340;28;20247;-85
2022/06/15 10:35:11;;;;;;;7.05;3.40;;;;;;;27.03;45.39;99632.75;5111591;28;20213;-85
2022/06/15 10:37:43;;;;;;;7.18;3.17;;;;;;;27.25;45.25;99626.25;5093445;28;20221;-87
2022/06/15 10:40:22;;;;;;;3.75;3.15;;;;;;;27.52;44.91;99628.81;5111486;28;20217;-86
2022/06/15 10:42:53;;;;;;;6.35;3.00;;;;;;;27.39;44.64;99620.97;5111444;28;20606;-85
2022/06/15 10:45:22;;;;;;;3.92;3.10;;;;;;;27.72;48.72;99623.47;5111475;28;20206;-86
2022/06/15 10:47:53;;;;;;;5.22;3.20;;;;;;;27.50;44.82;99622.97;5111125;28;20237;-87
2022/06/15 10:50:26;;;;;;;5.25;3.13;;;;;;;27.24;46.29;99624.66;5111302;28;20221;-87
2022/06/15 10:52:57;;;;;;;5.10;3.20;;;;;;;26.94;45.25;99629.53;5111160;28;20622;-85
2022/06/15 11:04:15;;;;;;;4.80;3.00;;;;;;;28.20;50.97;99613.31;5111128;28;20262;-86
2022/06/15 11:06:46;;;;;;;4.20;3.10;;;;;;;28.17;45.16;99608.50;5111152;28;20702;-86
2022/06/15 11:09:26;;;;;;;6.30;3.35;;;;;;;27.74;44.52;99613.56;5110721;28;20725;-85
2022/06/15 11:11:53;;;;;;;3.95;3.20;;;;;;;27.64;45.95;99614.03;5111088;28;20241;-86
2022/06/15 11:14:25;;;;;;;5.28;3.40;;;;;;;27.67;45.93;99616.22;5110667;28;20216;-86
2022/06/15 11:19:52;;;;;;;5.10;3.10;;;;;;;27.83;48.09;99622.03;5110589;28;20215;-87
2022/06/15 11:22:22;;;;;;;4.50;3.08;;;;;;;27.83;46.70;99614.94;5110666;28;20244;-86
2022/06/15 11:24:54;;;;;;;3.72;3.13;;;;;;;27.69;46.27;99616.84;5110677;28;20226;-86
2022/06/15 11:27:26;;;;;;;4.38;3.20;;;;;;;27.65;46.33;99612.19;5110526;28;20237;-87
2022/06/15 11:29:57;;;;;;;4.13;3.28;;;;;;;27.39;46.17;99616.53;5109407;28;20687;-88
2022/06/15 11:32:42;;;;;;;5.43;3.70;;;;;;;27.12;45.49;99610.53;5110275;28;20233;-87
2022/06/15 11:35:23;;;;;;;3.92;3.10;;;;;;;27.25;44.15;99605.25;5109277;28;20290;-86
2022/06/15 11:37:55;;;;;;;5.00;3.53;;;;;;;27.50;46.25;99608.00;5110263;28;20233;-87
2022/06/15 11:40:31;;;;;;;3.20;2.90;;;;;;;27.82;44.73;99605.47;5110337;28;20302;-83
2022/06/15 11:42:57;;;;;;;3.63;3.25;;;;;;;27.92;45.55;99608.44;5110572;28;20733;-87
2022/06/15 11:45:30;;;;;;;4.70;3.10;;;;;;;27.88;46.30;99602.00;5110605;28;20754;-86
2022/06/15 11:48:11;;;;;;;7.13;3.50;;;;;;;27.49;45.49;99614.28;5110416;28;20632;-86
2022/06/15 11:50:43;;;;;;;4.53;3.53;;;;;;;27.52;46.84;99602.56;5110300;28;20250;-86
2022/06/15 11:53:25;;;;;;;4.95;3.30;;;;;;;27.60;49.32;99599.66;5110194;28;20612;-87
2022/06/15 11:55:58;;;;;;;5.93;3.45;;;;;;;27.68;50.47;99598.63;5110117;28;20745;-86
2022/06/15 11:58:51;;;;;;;5.93;3.30;;;;;;;27.38;46.23;99598.38;5110047;28;20249;-87
2022/06/15 12:01:35;;;;;;;5.90;3.38;;;;;;;27.71;46.30;99599.00;5109940;28;20274;-85
2022/06/15 12:04:23;;;;;;;4.60;3.50;;;;;;;27.45;44.81;99593.88;5110161;28;20205;-86
2022/06/15 12:06:58;;;;;;;6.32;3.50;;;;;;;27.44;45.35;99592.28;5110223;28;20236;-86
2022/06/15 12:09:33;;;;;;;4.88;3.38;;;;;;;27.50;46.50;99602.75;5110120;28;20208;-88
2022/06/15 12:14:59;;;;;;;5.95;3.17;;;;;;;27.37;44.17;99602.00;5110078;28;20212;-87
2022/06/15 12:17:31;;;;;;;4.68;3.40;;;;;;;27.74;45.81;99598.59;5109722;28;20611;-87
2022/06/15 12:20:04;;;;;;;7.90;3.40;;;;;;;27.69;43.54;99600.25;5109778;28;20205;-86